createdAt,value
2018-09-04T00:00:14.261Z,100.00
2018-09-04T00:01:20.333Z,100.00
2018-09-04T00:02:26.446Z,100.00
2018-09-04T00:03:32.581Z,100.00
2018-09-04T00:04:38.529Z,100.00
2018-09-04T00:05:44.693Z,100.00
2018-09-04T00:06:50.878Z,100.00
2018-09-04T00:07:56.620Z,100.00
2018-09-04T00:09:03.099Z,100.00
2018-09-04T00:10:08.604Z,100.00
2018-09-04T00:11:14.812Z,100.00
2018-09-04T00:12:20.816Z,100.00
2018-09-04T00:13:26.896Z,100.00
2018-09-04T00:14:33.006Z,100.00
2018-09-04T00:15:39.154Z,100.00
2018-09-04T00:16:45.328Z,100.00
2018-09-04T00:17:51.435Z,100.00
2018-09-04T00:18:57.629Z,100.00
2018-09-04T00:20:03.387Z,100.00
2018-09-04T00:21:08.853Z,100.00
2018-09-04T00:22:14.609Z,100.00
2018-09-04T00:23:20.671Z,100.00
2018-09-04T00:24:26.858Z,100.00
2018-09-04T00:25:32.993Z,100.00
2018-09-04T00:26:39.097Z,100.00
2018-09-04T00:27:45.093Z,100.00
2018-09-04T00:28:51.981Z,100.00
2018-09-04T00:29:57.497Z,100.00
2018-09-04T00:31:03.833Z,100.00
2018-09-04T00:32:09.917Z,100.00
2018-09-04T00:33:16.061Z,100.00
2018-09-04T00:34:22.176Z,100.00
2018-09-04T00:35:28.364Z,100.00
2018-09-04T00:36:34.482Z,100.00
2018-09-04T00:37:40.644Z,100.00
2018-09-04T00:38:46.396Z,100.00
2018-09-04T00:39:52.241Z,100.00
2018-09-04T00:40:58.379Z,100.00
2018-09-04T00:42:04.508Z,100.00
2018-09-04T00:43:10.571Z,100.00
2018-09-04T00:44:16.579Z,100.00
2018-09-04T00:45:22.447Z,100.00
2018-09-04T00:46:28.617Z,100.00
2018-09-04T00:47:34.759Z,100.00
2018-09-04T00:48:40.568Z,100.00
2018-09-04T00:49:46.619Z,100.00
2018-09-04T00:50:52.856Z,100.00
2018-09-04T00:51:58.942Z,100.00
2018-09-04T00:53:05.140Z,100.00
2018-09-04T00:54:11.235Z,100.00
2018-09-04T00:55:17.354Z,100.00
2018-09-04T00:56:23.590Z,100.00
2018-09-04T00:57:29.583Z,100.00
2018-09-04T00:58:35.564Z,100.00
2018-09-04T00:59:41.642Z,100.00
2018-09-04T01:00:47.083Z,100.00
2018-09-04T01:01:52.019Z,100.00
2018-09-04T01:02:58.189Z,100.00
2018-09-04T01:04:04.323Z,100.00
2018-09-04T01:05:09.780Z,100.00
2018-09-04T01:06:15.963Z,100.00
2018-09-04T01:07:22.102Z,100.00
2018-09-04T01:08:28.165Z,100.00
2018-09-04T01:09:33.889Z,100.00
2018-09-04T01:10:39.894Z,100.00
2018-09-04T01:11:46.767Z,100.00
2018-09-04T01:12:52.908Z,99.89
2018-09-04T01:13:59.007Z,99.41
2018-09-04T01:15:04.746Z,99.71
2018-09-04T01:16:10.458Z,100.00
2018-09-04T01:17:16.565Z,100.00
2018-09-04T01:18:22.688Z,100.00
2018-09-04T01:19:28.704Z,100.00
2018-09-04T01:20:34.495Z,100.00
2018-09-04T01:21:40.687Z,100.00
2018-09-04T01:22:46.880Z,100.00
2018-09-04T01:23:53.063Z,100.00
2018-09-04T01:24:59.060Z,100.00
2018-09-04T01:26:04.805Z,100.00
2018-09-04T01:27:11.016Z,100.00
2018-09-04T01:28:17.187Z,100.00
2018-09-04T01:29:23.296Z,100.00
2018-09-04T01:30:29.404Z,100.00
2018-09-04T01:31:35.515Z,100.00
2018-09-04T01:32:41.744Z,100.00
2018-09-04T01:33:47.969Z,100.00
2018-09-04T01:34:53.674Z,99.65
2018-09-04T01:35:59.753Z,99.68
2018-09-04T01:37:06.270Z,99.63
2018-09-04T01:38:12.376Z,99.86
2018-09-04T01:39:18.135Z,100.00
2018-09-04T01:40:24.288Z,100.00
2018-09-04T01:41:30.374Z,100.00
2018-09-04T01:42:36.522Z,100.00
2018-09-04T01:43:42.699Z,100.00
2018-09-04T01:44:48.797Z,100.00
2018-09-04T01:45:54.914Z,99.97
2018-09-04T01:47:00.919Z,99.92
2018-09-04T01:48:06.663Z,100.00
2018-09-04T01:49:13.334Z,100.00
2018-09-04T01:50:19.478Z,100.00
2018-09-04T01:51:25.632Z,100.00
2018-09-04T01:52:31.795Z,100.00
2018-09-04T01:53:42.840Z,100.00
2018-09-04T01:54:48.951Z,100.00
2018-09-04T01:55:55.094Z,100.00
2018-09-04T01:57:01.233Z,100.00
2018-09-04T01:58:07.076Z,100.00
2018-09-04T01:59:13.216Z,100.00
2018-09-04T02:00:19.334Z,100.00
2018-09-04T02:01:25.087Z,100.00
2018-09-04T02:02:31.207Z,100.00
2018-09-04T02:03:37.259Z,100.00
2018-09-04T02:04:43.452Z,100.00
2018-09-04T02:05:49.566Z,100.00
2018-09-04T02:06:55.783Z,100.00
2018-09-04T02:08:01.993Z,100.00
2018-09-04T02:09:07.955Z,99.67
2018-09-04T02:10:14.083Z,99.91
2018-09-04T02:11:20.199Z,99.79
2018-09-04T02:12:26.334Z,99.80
2018-09-04T02:13:32.548Z,99.88
2018-09-04T02:14:38.676Z,100.00
2018-09-04T02:15:44.628Z,100.00
2018-09-04T02:16:50.735Z,100.00
2018-09-04T02:17:56.895Z,100.00
2018-09-04T02:19:02.724Z,100.00
2018-09-04T02:20:08.476Z,100.00
2018-09-04T02:21:14.635Z,100.00
2018-09-04T02:22:20.403Z,100.00
2018-09-04T02:23:26.452Z,99.81
2018-09-04T02:24:32.556Z,100.00
2018-09-04T02:25:38.674Z,100.00
2018-09-04T02:26:44.910Z,100.00
2018-09-04T02:27:56.581Z,100.00
2018-09-04T02:29:02.770Z,99.88
2018-09-04T02:30:08.578Z,99.83
2018-09-04T02:31:14.686Z,100.00
2018-09-04T02:32:20.859Z,100.00
2018-09-04T02:33:27.085Z,99.98
2018-09-04T02:34:33.509Z,100.00
2018-09-04T02:35:40.646Z,100.00
2018-09-04T02:36:46.811Z,100.00
2018-09-04T02:37:52.939Z,100.00
2018-09-04T02:38:58.767Z,100.00
2018-09-04T02:40:04.528Z,100.00
2018-09-04T02:41:10.500Z,99.96
2018-09-04T02:42:16.643Z,99.76
2018-09-04T02:43:22.763Z,100.00
2018-09-04T02:44:28.628Z,100.00
2018-09-04T02:45:34.760Z,100.00
2018-09-04T02:46:40.843Z,100.00
2018-09-04T02:47:46.867Z,100.00
2018-09-04T02:48:52.954Z,100.00
2018-09-04T02:49:59.125Z,100.00
2018-09-04T02:51:04.712Z,100.00
2018-09-04T02:52:10.824Z,100.00
2018-09-04T02:53:17.017Z,100.00
2018-09-04T02:54:23.200Z,100.00
2018-09-04T02:55:29.304Z,100.00
2018-09-04T02:56:36.008Z,100.00
2018-09-04T02:57:42.256Z,100.00
2018-09-04T02:58:47.854Z,100.00
2018-09-04T02:59:53.823Z,100.00
2018-09-04T03:00:59.763Z,100.00
2018-09-04T03:02:06.438Z,100.00
2018-09-04T03:03:12.601Z,100.00
2018-09-04T03:04:18.799Z,100.00
2018-09-04T03:05:24.940Z,100.00
2018-09-04T03:06:31.091Z,100.00
2018-09-04T03:07:37.205Z,100.00
2018-09-04T03:08:43.342Z,100.00
2018-09-04T03:09:49.517Z,100.00
2018-09-04T03:10:55.656Z,100.00
2018-09-04T03:12:01.828Z,100.00
2018-09-04T03:13:07.976Z,100.00
2018-09-04T03:14:13.824Z,100.00
2018-09-04T03:15:19.859Z,100.00
2018-09-04T03:16:25.952Z,100.00
2018-09-04T03:17:32.081Z,100.00
2018-09-04T03:18:38.102Z,100.00
2018-09-04T03:19:44.282Z,100.00
2018-09-04T03:20:50.454Z,100.00
2018-09-04T03:21:56.613Z,100.00
2018-09-04T03:23:02.819Z,100.00
2018-09-04T03:24:09.164Z,100.00
2018-09-04T03:25:15.318Z,100.00
2018-09-04T03:26:21.427Z,100.00
2018-09-04T03:27:27.558Z,100.00
2018-09-04T03:28:33.337Z,100.00
2018-09-04T03:29:39.365Z,100.00
2018-09-04T03:30:45.333Z,100.00
2018-09-04T03:31:51.473Z,100.00
2018-09-04T03:32:57.581Z,100.00
2018-09-04T03:34:03.765Z,100.00
2018-09-04T03:35:09.786Z,100.00
2018-09-04T03:36:15.893Z,100.00
2018-09-04T03:37:22.002Z,100.00
2018-09-04T03:38:28.106Z,100.00
2018-09-04T03:39:34.816Z,100.00
2018-09-04T03:40:40.951Z,100.00
2018-09-04T03:41:47.124Z,100.00
2018-09-04T03:42:53.264Z,100.00
2018-09-04T03:43:59.392Z,100.00
2018-09-04T03:45:04.668Z,100.00
2018-09-04T03:46:10.838Z,100.00
2018-09-04T03:47:16.968Z,100.00
2018-09-04T03:48:23.001Z,100.00
2018-09-04T03:49:29.309Z,100.00
2018-09-04T03:50:35.431Z,100.00
2018-09-04T03:51:42.117Z,100.00
2018-09-04T03:52:48.217Z,100.00
2018-09-04T03:53:54.365Z,100.00
2018-09-04T03:55:00.554Z,100.00
2018-09-04T03:56:06.525Z,100.00
2018-09-04T03:57:12.645Z,100.00
2018-09-04T03:58:19.489Z,100.00
2018-09-04T03:59:25.614Z,100.00
2018-09-04T04:00:31.802Z,100.00
2018-09-04T04:01:38.001Z,100.00
2018-09-04T04:02:44.118Z,100.00
2018-09-04T04:03:50.349Z,100.00
2018-09-04T04:04:56.453Z,100.00
2018-09-04T04:06:02.750Z,100.00
2018-09-04T04:07:08.741Z,100.00
2018-09-04T04:08:14.947Z,100.00
2018-09-04T04:09:21.094Z,100.00
2018-09-04T04:10:27.271Z,100.00
2018-09-04T04:11:33.594Z,100.00
2018-09-04T04:12:39.709Z,100.00
2018-09-04T04:13:46.031Z,100.00
2018-09-04T04:14:52.257Z,100.00
2018-09-04T04:15:58.521Z,100.00
2018-09-04T04:17:04.436Z,100.00
2018-09-04T04:18:10.529Z,100.00
2018-09-04T04:19:16.751Z,100.00
2018-09-04T04:20:22.749Z,100.00
2018-09-04T04:21:28.882Z,100.00
2018-09-04T04:22:35.078Z,100.00
2018-09-04T04:23:41.491Z,100.00
2018-09-04T04:24:47.828Z,100.00
2018-09-04T04:25:53.776Z,100.00
2018-09-04T04:27:00.134Z,100.00
2018-09-04T04:28:06.345Z,100.00
2018-09-04T04:29:12.286Z,100.00
2018-09-04T04:30:18.397Z,100.00
2018-09-04T04:31:24.552Z,100.00
2018-09-04T04:32:30.524Z,100.00
2018-09-04T04:33:36.658Z,100.00
2018-09-04T04:34:42.784Z,100.00
2018-09-04T04:35:48.629Z,100.00
2018-09-04T04:36:54.398Z,100.00
2018-09-04T04:38:00.885Z,100.00
2018-09-04T04:39:06.572Z,100.00
2018-09-04T04:40:12.329Z,100.00
2018-09-04T04:41:18.897Z,100.00
2018-09-04T04:42:25.096Z,100.00
2018-09-04T04:43:31.848Z,100.00
2018-09-04T04:44:38.072Z,100.00
2018-09-04T04:45:45.447Z,100.00
2018-09-04T04:46:52.213Z,100.00
2018-09-04T04:47:58.383Z,100.00
2018-09-04T04:49:04.755Z,100.00
2018-09-04T04:50:10.911Z,100.00
2018-09-04T04:51:16.988Z,100.00
2018-09-04T04:52:23.733Z,100.00
2018-09-04T04:53:29.848Z,100.00
2018-09-04T04:54:36.710Z,100.00
2018-09-04T04:55:42.888Z,100.00
2018-09-04T04:56:49.008Z,100.00
2018-09-04T04:57:55.134Z,100.00
2018-09-04T04:59:01.839Z,100.00
2018-09-04T05:00:07.959Z,100.00
2018-09-04T05:01:13.888Z,100.00
2018-09-04T05:02:20.052Z,100.00
2018-09-04T05:03:26.252Z,100.00
2018-09-04T05:04:32.394Z,100.00
2018-09-04T05:05:38.575Z,100.00
2018-09-04T05:06:44.449Z,100.00
2018-09-04T05:07:51.282Z,100.00
2018-09-04T05:08:58.055Z,100.00
2018-09-04T05:10:04.057Z,100.00
2018-09-04T05:11:10.566Z,100.00
2018-09-04T05:12:16.851Z,99.83
2018-09-04T05:13:22.622Z,99.69
2018-09-04T05:14:29.393Z,100.00
2018-09-04T05:15:35.670Z,100.00
2018-09-04T05:16:41.800Z,100.00
2018-09-04T05:17:47.913Z,100.00
2018-09-04T05:18:54.118Z,100.00
2018-09-04T05:20:00.232Z,100.00
2018-09-04T05:21:05.903Z,100.00
2018-09-04T05:22:12.044Z,100.00
2018-09-04T05:23:18.137Z,100.00
2018-09-04T05:24:24.246Z,100.00
2018-09-04T05:25:30.397Z,100.00
2018-09-04T05:26:36.561Z,100.00
2018-09-04T05:27:42.673Z,100.00
2018-09-04T05:28:48.684Z,100.00
2018-09-04T05:29:54.753Z,100.00
2018-09-04T05:31:00.918Z,100.00
2018-09-04T05:32:06.433Z,100.00
2018-09-04T05:33:12.349Z,100.00
2018-09-04T05:34:18.257Z,100.00
2018-09-04T05:35:24.182Z,100.00
2018-09-04T05:36:30.285Z,100.00
2018-09-04T05:37:36.039Z,99.86
2018-09-04T05:38:42.074Z,99.76
2018-09-04T05:39:48.205Z,99.26
2018-09-04T05:40:54.345Z,99.32
2018-09-04T05:42:00.532Z,99.38
2018-09-04T05:43:06.277Z,98.64
2018-09-04T05:44:12.170Z,97.34
2018-09-04T05:45:18.116Z,97.76
2018-09-04T05:46:24.024Z,97.54
2018-09-04T05:47:29.823Z,97.04
2018-09-04T05:48:35.724Z,96.89
2018-09-04T05:49:41.604Z,96.69
2018-09-04T05:50:47.546Z,97.39
2018-09-04T05:51:53.665Z,97.44
2018-09-04T05:52:59.788Z,97.47
2018-09-04T05:54:05.796Z,97.22
2018-09-04T05:55:11.970Z,96.77
2018-09-04T05:56:18.088Z,96.64
2018-09-04T05:57:24.240Z,96.85
2018-09-04T05:58:30.409Z,97.05
2018-09-04T05:59:36.304Z,97.67
2018-09-04T06:00:42.305Z,97.41
2018-09-04T06:01:48.441Z,97.79
2018-09-04T06:02:54.423Z,96.58
2018-09-04T06:04:01.253Z,96.02
2018-09-04T06:05:07.387Z,97.13
2018-09-04T06:06:13.593Z,97.10
2018-09-04T06:07:19.760Z,97.10
2018-09-04T06:08:25.882Z,96.75
2018-09-04T06:09:32.010Z,96.63
2018-09-04T06:10:38.105Z,96.63
2018-09-04T06:11:43.862Z,96.55
2018-09-04T06:12:50.132Z,96.18
2018-09-04T06:13:56.199Z,96.02
2018-09-04T06:15:02.339Z,95.86
2018-09-04T06:16:08.439Z,96.23
2018-09-04T06:17:14.521Z,95.37
2018-09-04T06:18:20.301Z,96.01
2018-09-04T06:19:26.907Z,96.16
2018-09-04T06:20:33.061Z,96.46
2018-09-04T06:21:39.295Z,96.14
2018-09-04T06:22:45.473Z,96.12
2018-09-04T06:23:51.610Z,96.07
2018-09-04T06:24:57.948Z,96.33
2018-09-04T06:26:05.190Z,96.02
2018-09-04T06:27:12.338Z,96.55
2018-09-04T06:28:23.366Z,95.88
2018-09-04T06:29:29.542Z,95.85
2018-09-04T06:30:35.921Z,96.14
2018-09-04T06:31:42.156Z,96.05
2018-09-04T06:32:48.205Z,95.16
2018-09-04T06:33:55.011Z,94.95
2018-09-04T06:35:01.622Z,94.73
2018-09-04T06:36:07.660Z,95.49
2018-09-04T06:37:13.450Z,95.29
2018-09-04T06:38:19.573Z,95.50
2018-09-04T06:39:25.410Z,95.06
2018-09-04T06:40:31.579Z,94.56
2018-09-04T06:41:37.742Z,93.64
2018-09-04T06:42:43.903Z,93.91
2018-09-04T06:43:50.011Z,93.92
2018-09-04T06:44:56.071Z,94.08
2018-09-04T06:46:02.275Z,95.04
2018-09-04T06:47:08.439Z,94.49
2018-09-04T06:48:14.552Z,93.43
2018-09-04T06:49:20.898Z,93.11
2018-09-04T06:50:26.741Z,93.59
2018-09-04T06:51:33.640Z,93.47
2018-09-04T06:52:39.720Z,93.37
2018-09-04T06:53:45.771Z,92.10
2018-09-04T06:54:51.849Z,92.40
2018-09-04T06:55:58.577Z,92.93
2018-09-04T06:57:04.964Z,93.79
2018-09-04T06:58:11.148Z,93.59
2018-09-04T06:59:17.280Z,92.79
2018-09-04T07:00:23.454Z,92.58
2018-09-04T07:01:29.518Z,92.98
2018-09-04T07:02:35.656Z,92.66
2018-09-04T07:03:41.789Z,92.82
2018-09-04T07:04:48.278Z,92.62
2018-09-04T07:05:56.660Z,92.60
2018-09-04T07:07:03.066Z,92.43
2018-09-04T07:08:09.313Z,91.93
2018-09-04T07:09:15.371Z,91.51
2018-09-04T07:10:21.479Z,91.53
2018-09-04T07:11:27.627Z,90.09
2018-09-04T07:12:33.845Z,90.87
2018-09-04T07:13:40.652Z,91.82
2018-09-04T07:14:46.352Z,90.66
2018-09-04T07:15:52.458Z,91.25
2018-09-04T07:16:58.738Z,91.49
2018-09-04T07:18:04.669Z,92.12
2018-09-04T07:19:09.953Z,91.80
2018-09-04T07:20:16.036Z,91.48
2018-09-04T07:21:22.200Z,91.76
2018-09-04T07:22:28.419Z,90.94
2018-09-04T07:23:34.569Z,91.13
2018-09-04T07:24:40.688Z,90.52
2018-09-04T07:25:46.569Z,90.45
2018-09-04T07:27:00.394Z,90.25
2018-09-04T07:28:06.468Z,89.89
2018-09-04T07:29:12.595Z,89.52
2018-09-04T07:30:18.711Z,89.03
2018-09-04T07:31:24.798Z,89.75
2018-09-04T07:32:31.043Z,89.84
2018-09-04T07:33:37.033Z,89.39
2018-09-04T07:34:43.228Z,90.22
2018-09-04T07:35:49.361Z,90.83
2018-09-04T07:36:55.525Z,90.37
2018-09-04T07:38:01.699Z,90.58
2018-09-04T07:39:07.853Z,89.60
2018-09-04T07:40:14.010Z,87.71
2018-09-04T07:41:20.417Z,87.25
2018-09-04T07:42:26.645Z,86.92
2018-09-04T07:43:32.761Z,85.59
2018-09-04T07:44:39.945Z,85.85
2018-09-04T07:45:46.074Z,85.46
2018-09-04T07:46:52.157Z,86.06
2018-09-04T07:47:58.871Z,85.27
2018-09-04T07:49:04.616Z,84.32
2018-09-04T07:50:10.669Z,85.48
2018-09-04T07:51:16.804Z,84.90
2018-09-04T07:52:23.020Z,85.14
2018-09-04T07:53:29.208Z,84.89
2018-09-04T07:54:35.318Z,84.99
2018-09-04T07:55:41.449Z,85.20
2018-09-04T07:56:47.291Z,85.28
2018-09-04T07:57:52.993Z,84.56
2018-09-04T07:58:59.124Z,83.52
2018-09-04T08:00:05.165Z,84.94
2018-09-04T08:01:11.429Z,83.79
2018-09-04T08:02:17.593Z,85.12
2018-09-04T08:03:23.764Z,84.38
2018-09-04T08:04:29.869Z,84.20
2018-09-04T08:05:35.996Z,84.01
2018-09-04T08:06:42.014Z,84.15
2018-09-04T08:07:47.781Z,83.23
2018-09-04T08:08:54.064Z,83.24
2018-09-04T08:10:00.351Z,83.68
2018-09-04T08:11:05.694Z,83.79
2018-09-04T08:12:11.796Z,81.99
2018-09-04T08:13:17.945Z,82.30
2018-09-04T08:14:23.897Z,82.35
2018-09-04T08:15:30.025Z,83.45
2018-09-04T08:16:36.155Z,81.11
2018-09-04T08:17:42.262Z,82.14
2018-09-04T08:18:48.545Z,81.84
2018-09-04T08:19:54.663Z,82.19
2018-09-04T08:21:00.851Z,82.49
2018-09-04T08:22:06.881Z,83.00
2018-09-04T08:23:13.101Z,81.85
2018-09-04T08:24:19.298Z,81.46
2018-09-04T08:25:25.398Z,80.95
2018-09-04T08:26:31.520Z,81.01
2018-09-04T08:27:37.404Z,81.35
2018-09-04T08:28:43.529Z,79.97
2018-09-04T08:29:49.747Z,80.19
2018-09-04T08:30:55.969Z,79.57
2018-09-04T08:32:02.060Z,79.93
2018-09-04T08:33:08.343Z,80.07
2018-09-04T08:34:14.646Z,79.49
2018-09-04T08:35:20.787Z,79.44
2018-09-04T08:36:26.913Z,79.85
2018-09-04T08:37:33.124Z,80.33
2018-09-04T08:38:39.051Z,79.54
2018-09-04T08:39:45.201Z,80.71
2018-09-04T08:40:51.323Z,81.45
2018-09-04T08:41:57.484Z,80.90
2018-09-04T08:43:03.875Z,80.22
2018-09-04T08:44:10.045Z,79.81
2018-09-04T08:45:16.150Z,80.42
2018-09-04T08:46:22.032Z,80.38
2018-09-04T08:47:28.212Z,79.62
2018-09-04T08:48:34.604Z,79.52
2018-09-04T08:49:40.693Z,79.42
2018-09-04T08:50:46.493Z,79.48
2018-09-04T08:51:52.484Z,78.48
2018-09-04T08:52:58.511Z,78.87
2018-09-04T08:54:04.589Z,78.82
2018-09-04T08:55:10.708Z,77.52
2018-09-04T08:56:17.018Z,78.88
2018-09-04T08:57:22.965Z,78.03
2018-09-04T08:58:29.262Z,78.74
2018-09-04T08:59:35.101Z,79.16
2018-09-04T09:00:41.343Z,77.67
2018-09-04T09:01:47.439Z,76.46
2018-09-04T09:02:53.444Z,76.91
2018-09-04T09:03:59.477Z,77.00
2018-09-04T09:05:05.209Z,76.20
2018-09-04T09:06:11.332Z,76.60
2018-09-04T09:07:17.250Z,77.04
2018-09-04T09:08:23.403Z,76.20
2018-09-04T09:09:29.480Z,76.57
2018-09-04T09:10:35.595Z,76.82
2018-09-04T09:11:41.705Z,76.07
2018-09-04T09:12:47.808Z,74.90
2018-09-04T09:13:53.952Z,75.57
2018-09-04T09:15:00.129Z,75.16
2018-09-04T09:16:05.933Z,76.09
2018-09-04T09:17:12.245Z,74.45
2018-09-04T09:18:18.383Z,74.57
2018-09-04T09:19:24.533Z,74.13
2018-09-04T09:20:30.668Z,75.17
2018-09-04T09:21:36.783Z,74.43
2018-09-04T09:22:42.919Z,74.75
2018-09-04T09:23:49.285Z,74.27
2018-09-04T09:24:55.416Z,74.71
2018-09-04T09:26:01.505Z,71.36
2018-09-04T09:27:07.424Z,73.17
2018-09-04T09:28:13.317Z,73.97
2018-09-04T09:29:19.423Z,72.38
2018-09-04T09:30:25.557Z,72.11
2018-09-04T09:31:31.501Z,72.24
2018-09-04T09:32:37.628Z,72.12
2018-09-04T09:33:43.659Z,71.67
2018-09-04T09:34:49.759Z,71.54
2018-09-04T09:35:55.641Z,70.24
2018-09-04T09:37:01.847Z,71.00
2018-09-04T09:38:08.077Z,71.13
2018-09-04T09:39:14.221Z,71.85
2018-09-04T09:40:20.398Z,70.33
2018-09-04T09:41:26.507Z,70.08
2018-09-04T09:42:32.380Z,70.67
2018-09-04T09:43:38.539Z,70.53
2018-09-04T09:44:44.729Z,69.76
2018-09-04T09:45:50.836Z,69.89
2018-09-04T09:46:56.396Z,67.74
2018-09-04T09:48:02.537Z,68.57
2018-09-04T09:49:08.677Z,69.21
2018-09-04T09:50:14.837Z,68.87
2018-09-04T09:51:20.846Z,69.10
2018-09-04T09:52:27.009Z,68.41
2018-09-04T09:53:33.533Z,68.71
2018-09-04T09:54:39.621Z,67.82
2018-09-04T09:55:45.818Z,67.88
2018-09-04T09:56:51.902Z,67.58
2018-09-04T09:57:57.790Z,67.56
2018-09-04T09:59:03.368Z,67.65
2018-09-04T10:00:08.968Z,67.87
2018-09-04T10:01:15.024Z,68.35
2018-09-04T10:02:21.209Z,66.73
2018-09-04T10:03:27.082Z,66.07
2018-09-04T10:04:33.261Z,67.07
2018-09-04T10:05:39.261Z,66.66
2018-09-04T10:06:45.430Z,65.65
2018-09-04T10:07:51.674Z,66.28
2018-09-04T10:08:57.987Z,64.75
2018-09-04T10:10:04.185Z,65.71
2018-09-04T10:11:10.430Z,64.47
2018-09-04T10:12:16.579Z,65.68
2018-09-04T10:13:22.693Z,65.33
2018-09-04T10:14:28.833Z,64.15
2018-09-04T10:15:34.905Z,64.84
2018-09-04T10:16:41.022Z,63.92
2018-09-04T10:17:47.160Z,64.49
2018-09-04T10:18:53.012Z,63.86
2018-09-04T10:19:59.252Z,65.05
2018-09-04T10:21:05.191Z,63.15
2018-09-04T10:22:11.277Z,62.24
2018-09-04T10:23:17.237Z,61.62
2018-09-04T10:24:23.389Z,62.69
2018-09-04T10:25:29.459Z,60.91
2018-09-04T10:26:35.374Z,60.82
2018-09-04T10:27:41.676Z,61.69
2018-09-04T10:28:47.795Z,60.70
2018-09-04T10:29:53.878Z,60.76
2018-09-04T10:30:59.739Z,61.06
2018-09-04T10:32:05.173Z,59.86
2018-09-04T10:33:11.295Z,59.29
2018-09-04T10:34:17.415Z,59.72
2018-09-04T10:35:23.652Z,60.43
2018-09-04T10:36:29.832Z,60.07
2018-09-04T10:37:35.962Z,60.17
2018-09-04T10:38:41.868Z,61.20
2018-09-04T10:39:47.750Z,60.31
2018-09-04T10:40:53.846Z,59.82
2018-09-04T10:42:00.990Z,59.68
2018-09-04T10:43:07.300Z,58.01
2018-09-04T10:44:13.754Z,57.78
2018-09-04T10:45:19.450Z,56.56
2018-09-04T10:46:25.609Z,57.54
2018-09-04T10:47:31.753Z,57.72
2018-09-04T10:48:37.936Z,56.62
2018-09-04T10:49:44.072Z,56.66
2018-09-04T10:50:50.211Z,56.83
2018-09-04T10:51:56.059Z,55.78
2018-09-04T10:53:02.189Z,56.12
2018-09-04T10:54:07.471Z,55.34
2018-09-04T10:55:13.356Z,55.26
2018-09-04T10:56:19.231Z,55.97
2018-09-04T10:57:25.048Z,56.11
2018-09-04T10:58:30.896Z,56.22
2018-09-04T10:59:37.063Z,56.50
2018-09-04T11:00:43.208Z,56.76
2018-09-04T11:01:49.156Z,56.26
2018-09-04T11:02:55.045Z,55.71
2018-09-04T11:04:00.715Z,56.43
2018-09-04T11:05:06.404Z,56.98
2018-09-04T11:06:12.288Z,56.72
2018-09-04T11:07:18.198Z,56.34
2018-09-04T11:08:24.139Z,55.36
2018-09-04T11:09:30.059Z,55.18
2018-09-04T11:10:36.116Z,56.34
2018-09-04T11:11:42.295Z,56.59
2018-09-04T11:12:47.877Z,55.11
2018-09-04T11:13:54.002Z,54.55
2018-09-04T11:14:59.871Z,55.15
2018-09-04T11:16:05.678Z,54.66
2018-09-04T11:17:11.703Z,53.81
2018-09-04T11:18:17.834Z,54.41
2018-09-04T11:19:23.935Z,56.13
2018-09-04T11:20:30.060Z,55.42
2018-09-04T11:21:35.875Z,53.90
2018-09-04T11:22:41.966Z,52.32
2018-09-04T11:23:47.889Z,51.83
2018-09-04T11:24:54.133Z,52.55
2018-09-04T11:26:00.372Z,53.26
2018-09-04T11:27:06.173Z,53.97
2018-09-04T11:28:12.173Z,50.84
2018-09-04T11:29:17.985Z,51.36
2018-09-04T11:30:24.621Z,51.41
2018-09-04T11:31:30.173Z,51.48
2018-09-04T11:32:35.927Z,51.15
2018-09-04T11:33:41.561Z,50.62
2018-09-04T11:34:47.480Z,51.30
2018-09-04T11:35:53.279Z,50.81
2018-09-04T11:36:59.117Z,52.16
2018-09-04T11:38:04.607Z,50.68
2018-09-04T11:39:10.768Z,47.99
2018-09-04T11:40:17.959Z,48.33
2018-09-04T11:41:24.399Z,46.97
2018-09-04T11:42:30.161Z,47.24
2018-09-04T11:43:36.350Z,46.95
2018-09-04T11:44:42.235Z,46.47
2018-09-04T11:45:48.125Z,46.47
2018-09-04T11:46:54.263Z,47.42
2018-09-04T11:48:01.131Z,48.09
2018-09-04T11:49:06.601Z,47.21
2018-09-04T11:50:12.478Z,46.88
2018-09-04T11:51:18.121Z,46.73
2018-09-04T11:52:23.960Z,48.15
2018-09-04T11:53:30.028Z,45.96
2018-09-04T11:54:35.857Z,47.74
2018-09-04T11:55:41.683Z,47.28
2018-09-04T11:56:47.520Z,46.62
2018-09-04T11:57:53.384Z,46.73
2018-09-04T11:58:59.185Z,46.21
2018-09-04T12:00:03.967Z,45.33
2018-09-04T12:01:09.593Z,44.72
2018-09-04T12:02:15.355Z,43.97
2018-09-04T12:03:21.055Z,44.67
2018-09-04T12:04:26.829Z,43.88
2018-09-04T12:05:32.870Z,45.08
2018-09-04T12:06:38.797Z,44.13
2018-09-04T12:07:44.659Z,44.39
2018-09-04T12:08:50.463Z,44.91
2018-09-04T12:09:56.378Z,44.92
2018-09-04T12:11:02.594Z,46.39
2018-09-04T12:12:08.139Z,44.26
2018-09-04T12:13:13.819Z,44.40
2018-09-04T12:14:19.777Z,45.32
2018-09-04T12:15:25.583Z,44.69
2018-09-04T12:16:32.121Z,45.02
2018-09-04T12:17:38.247Z,42.95
2018-09-04T12:18:44.364Z,43.38
2018-09-04T12:19:49.811Z,44.24
2018-09-04T12:20:54.977Z,41.78
2018-09-04T12:22:01.235Z,42.85
2018-09-04T12:23:07.328Z,43.32
2018-09-04T12:24:13.531Z,42.97
2018-09-04T12:25:19.412Z,43.42
2018-09-04T12:26:25.552Z,43.34
2018-09-04T12:27:31.417Z,43.40
2018-09-04T12:28:37.071Z,43.13
2018-09-04T12:29:43.020Z,43.48
2018-09-04T12:30:49.179Z,43.92
2018-09-04T12:31:54.954Z,43.55
2018-09-04T12:33:01.057Z,43.12
2018-09-04T12:34:06.811Z,44.31
2018-09-04T12:35:13.134Z,43.22
2018-09-04T12:36:19.519Z,43.04
2018-09-04T12:37:25.587Z,43.02
2018-09-04T12:38:31.373Z,43.76
2018-09-04T12:39:37.244Z,43.76
2018-09-04T12:40:43.083Z,43.58
2018-09-04T12:41:48.993Z,44.25
2018-09-04T12:42:55.106Z,44.98
2018-09-04T12:44:00.970Z,45.60
2018-09-04T12:45:08.021Z,44.79
2018-09-04T12:46:14.286Z,45.46
2018-09-04T12:47:20.269Z,44.44
2018-09-04T12:48:26.427Z,45.62
2018-09-04T12:49:32.689Z,45.87
2018-09-04T12:50:39.116Z,46.50
2018-09-04T12:51:45.189Z,47.37
2018-09-04T12:52:51.342Z,45.55
2018-09-04T12:53:57.472Z,46.44
2018-09-04T12:55:04.459Z,46.45
2018-09-04T12:56:10.664Z,45.63
2018-09-04T12:57:16.776Z,44.40
2018-09-04T12:58:22.851Z,45.59
2018-09-04T12:59:29.230Z,42.27
2018-09-04T13:00:36.060Z,41.49
2018-09-04T13:01:43.695Z,41.77
2018-09-04T13:02:50.239Z,42.96
2018-09-04T13:03:56.269Z,43.28
2018-09-04T13:05:02.600Z,42.38
2018-09-04T13:06:08.814Z,43.67
2018-09-04T13:07:15.210Z,42.65
2018-09-04T13:08:21.612Z,42.61
2018-09-04T13:09:27.626Z,42.68
2018-09-04T13:10:33.803Z,43.83
2018-09-04T13:11:39.958Z,44.21
2018-09-04T13:12:46.032Z,43.60
2018-09-04T13:13:51.847Z,44.37
2018-09-04T13:14:58.986Z,42.93
2018-09-04T13:16:06.050Z,42.83
2018-09-04T13:17:12.715Z,43.29
2018-09-04T13:18:18.821Z,44.07
2018-09-04T13:19:24.741Z,44.20
2018-09-04T13:20:30.828Z,45.17
2018-09-04T13:21:36.575Z,45.30
2018-09-04T13:22:42.681Z,45.60
2018-09-04T13:23:48.422Z,45.11
2018-09-04T13:24:54.526Z,44.93
2018-09-04T13:26:00.658Z,47.33
2018-09-04T13:27:06.783Z,45.91
2018-09-04T13:28:12.531Z,46.49
2018-09-04T13:29:18.676Z,46.00
2018-09-04T13:30:24.449Z,45.62
2018-09-04T13:31:30.585Z,46.11
2018-09-04T13:32:36.715Z,45.91
2018-09-04T13:33:42.692Z,46.15
2018-09-04T13:34:48.823Z,45.35
2018-09-04T13:35:54.908Z,46.65
2018-09-04T13:37:00.992Z,46.61
2018-09-04T13:38:07.119Z,46.93
2018-09-04T13:39:13.155Z,47.41
2018-09-04T13:40:19.229Z,47.58
2018-09-04T13:41:25.378Z,47.94
2018-09-04T13:42:31.478Z,46.32
2018-09-04T13:43:37.560Z,46.75
2018-09-04T13:44:43.620Z,46.74
2018-09-04T13:45:49.465Z,47.05
2018-09-04T13:46:55.565Z,46.85
2018-09-04T13:48:01.366Z,46.79
2018-09-04T13:49:07.521Z,46.31
2018-09-04T13:50:13.719Z,43.93
2018-09-04T13:51:19.795Z,44.05
2018-09-04T13:52:25.929Z,43.05
2018-09-04T13:53:32.555Z,42.31
2018-09-04T13:54:39.890Z,41.00
2018-09-04T13:55:46.380Z,40.47
2018-09-04T13:56:52.864Z,39.14
2018-09-04T13:57:59.256Z,40.55
2018-09-04T13:59:07.113Z,41.55
2018-09-04T14:00:13.751Z,42.07
2018-09-04T14:01:20.019Z,41.55